createdAt,value
2022-12-25T00:02:05.137Z,1.08
2022-12-25T00:04:46.949Z,1.05
2022-12-25T00:07:27.924Z,1.06
2022-12-25T00:10:08.480Z,1.11
2022-12-25T00:12:49.153Z,1.24
2022-12-25T00:15:28.994Z,1.17
2022-12-25T00:18:08.930Z,1.14
2022-12-25T00:20:59.176Z,1.09
2022-12-25T00:23:40.515Z,1.06
2022-12-25T00:26:20.800Z,1.02
2022-12-25T00:29:01.407Z,1.02
2022-12-25T00:31:41.180Z,1.05
2022-12-25T00:34:21.011Z,1.04
2022-12-25T00:36:59.153Z,1.01
2022-12-25T00:39:40.104Z,1.01
2022-12-25T00:42:21.422Z,1.01
2022-12-25T00:45:02.387Z,1.03
2022-12-25T00:47:43.240Z,1.03
2022-12-25T00:50:23.045Z,1.00
2022-12-25T00:53:05.906Z,1.01
2022-12-25T00:55:46.014Z,0.98
2022-12-25T00:58:28.962Z,0.96
2022-12-25T01:01:09.630Z,0.94
2022-12-25T01:03:50.147Z,0.92
2022-12-25T01:06:32.901Z,0.90
2022-12-25T01:09:30.732Z,0.86
2022-12-25T01:12:11.965Z,0.93
2022-12-25T01:14:51.708Z,1.01
2022-12-25T01:17:52.279Z,1.15
2022-12-25T01:20:30.225Z,1.40
2022-12-25T01:23:10.328Z,1.33
2022-12-25T01:25:50.150Z,1.31
2022-12-25T01:28:30.010Z,1.31
2022-12-25T01:31:11.471Z,1.29
2022-12-25T01:33:52.910Z,1.24
2022-12-25T01:36:32.623Z,1.20
2022-12-25T01:39:12.412Z,1.17
2022-12-25T01:41:52.210Z,1.14
2022-12-25T01:44:51.145Z,1.13
2022-12-25T01:47:34.278Z,1.11
2022-12-25T01:50:14.009Z,1.10
2022-12-25T01:52:53.817Z,1.09
2022-12-25T01:55:33.612Z,1.13
2022-12-25T01:58:13.426Z,1.14
2022-12-25T02:00:53.381Z,1.13
2022-12-25T02:03:34.037Z,1.11
2022-12-25T02:06:16.430Z,1.11
2022-12-25T02:08:59.683Z,1.08
2022-12-25T02:11:57.597Z,1.08
2022-12-25T02:14:38.905Z,1.15
2022-12-25T02:17:21.919Z,1.11
2022-12-25T02:20:09.039Z,1.10
2022-12-25T02:22:51.381Z,1.10
2022-12-25T02:25:34.088Z,1.12
2022-12-25T02:28:16.461Z,1.17
2022-12-25T02:31:00.312Z,1.42
2022-12-25T02:34:00.208Z,1.38
2022-12-25T02:36:44.888Z,1.38
2022-12-25T02:39:45.107Z,1.41
2022-12-25T02:42:48.409Z,1.44
2022-12-25T02:45:51.809Z,1.54
2022-12-25T02:48:52.891Z,1.56
2022-12-25T02:51:53.282Z,1.64
2022-12-25T02:54:52.315Z,1.77
2022-12-25T02:57:53.456Z,1.81
2022-12-25T03:00:50.931Z,1.93
2022-12-25T03:03:50.789Z,1.95
2022-12-25T03:06:44.220Z,1.99
2022-12-25T03:09:45.558Z,2.00
2022-12-25T03:12:26.150Z,2.02
2022-12-25T03:15:27.546Z,2.03
2022-12-25T03:18:08.591Z,1.95
2022-12-25T03:21:07.066Z,1.91
2022-12-25T03:24:06.455Z,1.92
2022-12-25T03:26:58.394Z,1.88
2022-12-25T03:30:12.639Z,1.86
2022-12-25T03:33:09.572Z,1.77
2022-12-25T03:36:04.917Z,1.75
2022-12-25T03:39:09.482Z,1.91
2022-12-25T03:42:08.599Z,1.96
2022-12-25T03:45:08.710Z,2.01
2022-12-25T03:48:06.560Z,2.37
2022-12-25T03:51:03.928Z,2.64
2022-12-25T03:54:01.702Z,2.86
2022-12-25T03:57:00.014Z,2.86
2022-12-25T03:59:57.295Z,3.03
2022-12-25T04:02:53.117Z,2.93
2022-12-25T04:05:52.972Z,2.93
2022-12-25T04:08:51.234Z,2.94
2022-12-25T04:11:48.617Z,2.98
2022-12-25T04:14:46.180Z,2.94
2022-12-25T04:17:45.097Z,2.92
2022-12-25T04:20:42.822Z,2.87
2022-12-25T04:23:41.435Z,2.95
2022-12-25T04:26:38.904Z,3.06
2022-12-25T04:29:38.822Z,3.16
2022-12-25T04:32:36.967Z,3.16
2022-12-25T04:35:34.192Z,3.20
2022-12-25T04:38:13.998Z,3.26
2022-12-25T04:40:53.974Z,3.48
2022-12-25T04:43:33.630Z,3.61
2022-12-25T04:46:13.471Z,3.70
2022-12-25T04:48:53.253Z,3.75
2022-12-25T04:51:33.055Z,3.80
2022-12-25T04:54:12.865Z,3.86
2022-12-25T04:56:52.681Z,3.94
2022-12-25T04:59:32.582Z,3.99
2022-12-25T05:02:10.438Z,4.04
2022-12-25T05:04:50.486Z,4.14
2022-12-25T05:07:30.284Z,4.20
2022-12-25T05:10:10.639Z,4.25
2022-12-25T05:12:51.497Z,4.27
2022-12-25T05:15:31.705Z,4.32
2022-12-25T05:18:12.885Z,4.33
2022-12-25T05:20:55.683Z,4.35
2022-12-25T05:23:35.614Z,4.32
2022-12-25T05:26:15.355Z,4.35
2022-12-25T05:28:55.518Z,4.46
2022-12-25T05:31:38.637Z,4.47
2022-12-25T05:34:19.554Z,4.43
2022-12-25T05:36:59.383Z,4.44
2022-12-25T05:39:41.195Z,4.42
2022-12-25T05:42:22.481Z,4.44
2022-12-25T05:45:03.879Z,4.45
2022-12-25T05:47:47.019Z,4.43
2022-12-25T05:50:28.194Z,4.46
2022-12-25T05:53:19.406Z,4.53
2022-12-25T05:56:02.922Z,4.57
2022-12-25T05:58:43.540Z,4.59
2022-12-25T06:01:25.927Z,4.60
2022-12-25T06:04:12.434Z,4.64
2022-12-25T06:06:50.699Z,4.60
2022-12-25T06:09:30.659Z,4.56
2022-12-25T06:12:10.485Z,4.52
2022-12-25T06:14:50.239Z,4.50
2022-12-25T06:17:32.245Z,4.47
2022-12-25T06:20:13.175Z,4.42
2022-12-25T06:22:52.900Z,4.37
2022-12-25T06:25:32.702Z,4.33
2022-12-25T06:28:12.495Z,4.28
2022-12-25T06:30:54.318Z,4.31
2022-12-25T06:33:35.461Z,4.27
2022-12-25T06:36:15.632Z,4.29
2022-12-25T06:38:56.686Z,4.24
2022-12-25T06:41:36.358Z,4.22
2022-12-25T06:44:16.143Z,4.20
2022-12-25T06:46:55.965Z,4.17
2022-12-25T06:49:36.030Z,4.16
2022-12-25T06:52:15.283Z,4.09
2022-12-25T06:54:55.395Z,4.08
2022-12-25T06:57:37.211Z,4.06
2022-12-25T07:00:20.562Z,4.07
2022-12-25T07:03:01.285Z,4.08
2022-12-25T07:05:41.052Z,4.04
2022-12-25T07:08:22.812Z,3.98
2022-12-25T07:11:06.021Z,3.96
2022-12-25T07:13:47.057Z,3.90
2022-12-25T07:16:30.281Z,3.85
2022-12-25T07:19:11.615Z,3.76
2022-12-25T07:21:52.659Z,3.70
2022-12-25T07:24:32.500Z,3.67
2022-12-25T07:27:10.431Z,3.58
2022-12-25T07:29:50.499Z,3.54
2022-12-25T07:32:28.397Z,3.50
2022-12-25T07:35:20.284Z,3.43
2022-12-25T07:38:02.055Z,3.38
2022-12-25T07:40:45.534Z,3.33
2022-12-25T07:43:26.317Z,3.24
2022-12-25T07:46:05.919Z,3.17
2022-12-25T07:48:45.698Z,3.13
2022-12-25T07:51:25.641Z,3.09
2022-12-25T07:54:05.393Z,3.06
2022-12-25T07:56:45.387Z,3.03
2022-12-25T07:59:26.717Z,2.94
2022-12-25T08:02:08.196Z,2.93
2022-12-25T08:04:48.470Z,2.87
2022-12-25T08:07:29.127Z,2.83
2022-12-25T08:10:09.328Z,2.84
2022-12-25T08:12:51.940Z,2.84
2022-12-25T08:15:32.161Z,2.93
2022-12-25T08:18:15.174Z,3.11
2022-12-25T08:20:56.244Z,3.45
2022-12-25T08:23:36.850Z,3.82
2022-12-25T08:26:18.050Z,4.04
2022-12-25T08:28:58.795Z,4.21
2022-12-25T08:31:45.728Z,4.36
2022-12-25T08:34:26.553Z,4.54
2022-12-25T08:37:09.817Z,4.70
2022-12-25T08:39:53.335Z,4.85
2022-12-25T08:42:33.850Z,4.97
2022-12-25T08:45:13.763Z,5.03
2022-12-25T08:47:56.109Z,5.00
2022-12-25T08:50:36.472Z,4.98
2022-12-25T08:53:18.969Z,4.96
2022-12-25T08:55:59.824Z,4.94
2022-12-25T08:58:40.903Z,4.92
2022-12-25T09:01:22.215Z,4.97
2022-12-25T09:04:05.734Z,4.97
2022-12-25T09:06:46.519Z,4.98
2022-12-25T09:09:28.392Z,5.01
2022-12-25T09:12:09.497Z,5.05
2022-12-25T09:14:47.223Z,5.11
2022-12-25T09:17:27.344Z,5.19
2022-12-25T09:20:06.191Z,5.28
2022-12-25T09:22:46.936Z,5.36
2022-12-25T09:25:26.818Z,5.44
2022-12-25T09:28:04.875Z,5.51
2022-12-25T09:30:42.943Z,5.56
2022-12-25T09:33:23.224Z,5.68
2022-12-25T09:36:05.569Z,5.71
2022-12-25T09:38:45.908Z,5.81
2022-12-25T09:41:28.702Z,5.84
2022-12-25T09:44:07.925Z,5.86
2022-12-25T09:46:51.498Z,5.88
2022-12-25T09:49:32.736Z,5.91
2022-12-25T09:52:13.406Z,5.94
2022-12-25T09:54:55.788Z,5.99
2022-12-25T09:57:36.123Z,6.09
2022-12-25T10:00:18.170Z,6.15
2022-12-25T10:03:09.509Z,6.21
2022-12-25T10:05:59.636Z,6.31
2022-12-25T10:08:47.702Z,6.43
2022-12-25T10:11:31.857Z,6.59
2022-12-25T10:14:18.794Z,6.65
2022-12-25T10:17:02.507Z,6.53
2022-12-25T10:19:49.120Z,6.47
2022-12-25T10:22:33.083Z,6.49
2022-12-25T10:25:13.189Z,6.50
2022-12-25T10:27:53.810Z,6.50
2022-12-25T10:30:34.193Z,6.54
2022-12-25T10:33:17.066Z,6.54
2022-12-25T10:35:58.575Z,6.60
2022-12-25T10:38:38.481Z,6.65
2022-12-25T10:41:22.161Z,6.73
2022-12-25T10:44:12.272Z,6.76
2022-12-25T10:46:55.036Z,6.81
2022-12-25T10:49:35.802Z,6.83
2022-12-25T10:52:21.012Z,6.84
2022-12-25T10:55:10.631Z,6.91
2022-12-25T10:57:50.606Z,6.94
2022-12-25T11:00:32.857Z,6.95
2022-12-25T11:03:22.373Z,6.97
2022-12-25T11:06:03.159Z,7.04
2022-12-25T11:08:44.232Z,7.04
2022-12-25T11:11:24.086Z,7.07
2022-12-25T11:14:03.861Z,7.11
2022-12-25T11:16:41.862Z,7.11
2022-12-25T11:19:27.263Z,7.10
2022-12-25T11:22:17.658Z,7.12
2022-12-25T11:24:55.724Z,7.14
2022-12-25T11:27:35.801Z,7.16
2022-12-25T11:30:16.419Z,7.16
2022-12-25T11:32:56.349Z,7.16
2022-12-25T11:35:38.431Z,7.16
2022-12-25T11:38:20.176Z,7.21
2022-12-25T11:41:01.537Z,7.24
2022-12-25T11:43:41.158Z,7.30
2022-12-25T11:46:25.181Z,7.34
2022-12-25T11:49:08.152Z,7.38
2022-12-25T11:51:49.071Z,7.41
2022-12-25T11:54:29.122Z,7.46
2022-12-25T11:57:07.896Z,7.53
2022-12-25T11:59:49.870Z,7.57
2022-12-25T12:02:32.021Z,7.62
2022-12-25T12:05:17.585Z,7.67
2022-12-25T12:08:00.240Z,7.68
2022-12-25T12:10:51.085Z,7.70
2022-12-25T12:13:36.346Z,7.71
2022-12-25T12:16:19.059Z,7.70
2022-12-25T12:19:00.054Z,7.72
2022-12-25T12:21:43.942Z,7.77
2022-12-25T12:24:26.797Z,7.78
2022-12-25T12:27:14.332Z,7.81
2022-12-25T12:29:57.839Z,7.82
2022-12-25T12:32:39.991Z,7.82
2022-12-25T12:35:19.296Z,7.85
2022-12-25T12:38:03.237Z,7.85
2022-12-25T12:40:42.912Z,7.86
2022-12-25T12:43:28.350Z,7.80
2022-12-25T12:46:14.396Z,7.86
2022-12-25T12:48:55.916Z,7.86
2022-12-25T12:51:37.115Z,7.82
2022-12-25T12:54:21.124Z,7.87
2022-12-25T12:57:05.756Z,7.89
2022-12-25T12:59:47.717Z,7.89
2022-12-25T13:02:46.846Z,7.86
2022-12-25T13:05:34.185Z,7.85
2022-12-25T13:08:18.936Z,7.81
2022-12-25T13:11:05.618Z,7.81
2022-12-25T13:13:48.397Z,7.78
2022-12-25T13:16:30.956Z,7.75
2022-12-25T13:19:13.661Z,7.76
2022-12-25T13:21:56.328Z,7.82
2022-12-25T13:24:38.211Z,7.82
2022-12-25T13:27:22.950Z,7.80
2022-12-25T13:30:14.235Z,7.83
2022-12-25T13:32:54.944Z,7.85
2022-12-25T13:35:34.677Z,7.88
2022-12-25T13:38:15.007Z,7.85
2022-12-25T13:41:14.023Z,7.89
2022-12-25T13:43:55.248Z,7.86
2022-12-25T13:46:36.288Z,7.86
2022-12-25T13:49:17.395Z,7.86
2022-12-25T13:52:05.508Z,7.87
2022-12-25T13:54:54.837Z,7.86
2022-12-25T13:57:36.229Z,7.86
2022-12-25T14:00:20.251Z,7.86
2022-12-25T14:03:00.913Z,7.83
2022-12-25T14:05:45.016Z,7.84
2022-12-25T14:08:25.431Z,7.84
2022-12-25T14:11:06.642Z,7.80
2022-12-25T14:13:46.412Z,7.80
2022-12-25T14:16:26.190Z,7.73
2022-12-25T14:19:20.619Z,7.69
2022-12-25T14:22:02.321Z,7.67
2022-12-25T14:24:44.425Z,7.65
2022-12-25T14:27:25.465Z,7.66
2022-12-25T14:30:07.024Z,7.70
2022-12-25T14:32:51.670Z,7.66
2022-12-25T14:35:32.003Z,7.67
2022-12-25T14:38:10.831Z,7.68
2022-12-25T14:40:59.955Z,7.71
2022-12-25T14:43:43.007Z,7.76
2022-12-25T14:46:26.052Z,7.75
2022-12-25T14:49:08.396Z,7.78
2022-12-25T14:51:48.609Z,7.74
2022-12-25T14:54:28.280Z,7.73
2022-12-25T14:57:08.088Z,7.74
2022-12-25T14:59:49.907Z,7.73
2022-12-25T15:02:29.189Z,7.74
2022-12-25T15:05:22.745Z,7.71
2022-12-25T15:08:12.721Z,7.69
2022-12-25T15:11:02.096Z,7.70
2022-12-25T15:13:45.768Z,7.72
2022-12-25T15:16:29.572Z,7.75
2022-12-25T15:19:12.950Z,7.75
2022-12-25T15:21:52.736Z,7.76
2022-12-25T15:24:32.751Z,7.76
2022-12-25T15:27:12.719Z,7.76
2022-12-25T15:30:09.799Z,7.80
2022-12-25T15:32:51.422Z,7.77
2022-12-25T15:35:32.643Z,7.77
2022-12-25T15:38:12.590Z,7.78
2022-12-25T15:40:53.822Z,7.75
2022-12-25T15:43:41.635Z,7.72
2022-12-25T15:46:24.673Z,7.68
2022-12-25T15:49:02.506Z,7.70
2022-12-25T15:51:42.869Z,7.68
2022-12-25T15:54:24.010Z,7.67
2022-12-25T15:57:04.922Z,7.69
2022-12-25T15:59:47.325Z,7.69
2022-12-25T16:02:28.628Z,7.66
2022-12-25T16:05:11.977Z,7.71
2022-12-25T16:07:52.651Z,7.70
2022-12-25T16:10:38.375Z,7.69
2022-12-25T16:13:20.678Z,7.70
2022-12-25T16:16:02.808Z,7.68
2022-12-25T16:18:47.388Z,7.69
2022-12-25T16:21:30.209Z,7.69
2022-12-25T16:24:09.113Z,7.72
2022-12-25T16:26:48.879Z,7.74
2022-12-25T16:29:28.704Z,7.74
2022-12-25T16:32:09.294Z,7.73
2022-12-25T16:34:50.616Z,7.69
2022-12-25T16:37:31.409Z,7.70
2022-12-25T16:40:11.490Z,7.68
2022-12-25T16:42:54.823Z,7.67
2022-12-25T16:45:39.329Z,7.66
2022-12-25T16:48:20.162Z,7.67
2022-12-25T16:51:00.112Z,7.67
2022-12-25T16:53:41.800Z,7.64
2022-12-25T16:56:25.307Z,7.65
2022-12-25T16:59:07.801Z,7.64
2022-12-25T17:01:47.020Z,7.61
2022-12-25T17:04:27.051Z,7.60
2022-12-25T17:07:04.925Z,7.54
2022-12-25T17:09:45.074Z,7.57
2022-12-25T17:12:24.845Z,7.61
2022-12-25T17:15:05.222Z,7.58
2022-12-25T17:17:46.180Z,7.60
2022-12-25T17:20:25.868Z,7.60
2022-12-25T17:23:05.794Z,7.60
2022-12-25T17:25:45.465Z,7.55
2022-12-25T17:28:23.379Z,7.59
2022-12-25T17:31:04.379Z,7.58
2022-12-25T17:33:45.037Z,7.54
2022-12-25T17:36:27.052Z,7.59
2022-12-25T17:39:07.800Z,7.62
2022-12-25T17:41:47.589Z,7.61
2022-12-25T17:44:27.486Z,7.70
2022-12-25T17:47:07.202Z,7.72
2022-12-25T17:49:46.951Z,7.77
2022-12-25T17:52:26.761Z,7.76
2022-12-25T17:55:07.656Z,7.84
2022-12-25T17:57:47.968Z,7.81
2022-12-25T18:00:27.762Z,7.81
2022-12-25T18:03:11.706Z,7.82
2022-12-25T18:05:54.225Z,7.80
2022-12-25T18:08:39.539Z,7.81
2022-12-25T18:11:20.886Z,7.83
2022-12-25T18:14:04.779Z,7.80
2022-12-25T18:16:49.360Z,7.85
2022-12-25T18:19:32.608Z,7.87
2022-12-25T18:22:13.569Z,7.91
2022-12-25T18:24:53.236Z,7.89
2022-12-25T18:27:33.294Z,7.91
2022-12-25T18:30:14.635Z,7.91
2022-12-25T18:32:56.314Z,7.88
2022-12-25T18:35:40.684Z,7.98
2022-12-25T18:38:21.880Z,8.00
2022-12-25T18:41:07.124Z,8.02
2022-12-25T18:43:52.402Z,8.08
2022-12-25T18:46:35.726Z,8.12
2022-12-25T18:49:17.493Z,8.15
2022-12-25T18:52:47.895Z,8.20
2022-12-25T18:54:58.390Z,8.20
2022-12-25T18:57:37.750Z,8.24
2022-12-25T19:00:21.832Z,8.20
2022-12-25T19:03:02.810Z,8.19
2022-12-25T19:05:43.915Z,8.16
2022-12-25T19:08:23.326Z,8.14
2022-12-25T19:11:09.210Z,8.12
2022-12-25T19:13:49.536Z,8.13
2022-12-25T19:16:31.420Z,8.14
2022-12-25T19:19:13.012Z,8.12
2022-12-25T19:21:54.496Z,8.11
2022-12-25T19:24:33.267Z,8.08
2022-12-25T19:27:13.022Z,8.09
2022-12-25T19:29:54.921Z,8.16
2022-12-25T19:32:36.295Z,8.24
2022-12-25T19:35:18.393Z,8.31
2022-12-25T19:37:59.100Z,8.37
2022-12-25T19:40:40.631Z,8.42
2022-12-25T19:43:21.924Z,8.47
2022-12-25T19:46:03.314Z,8.48
2022-12-25T19:48:44.485Z,8.52
2022-12-25T19:51:26.688Z,8.54
2022-12-25T19:54:07.773Z,8.57
2022-12-25T19:56:51.949Z,8.58
2022-12-25T19:59:35.355Z,8.60
2022-12-25T20:02:18.146Z,8.57
2022-12-25T20:05:01.175Z,8.57
2022-12-25T20:07:41.959Z,8.56
2022-12-25T20:10:22.778Z,8.56
2022-12-25T20:13:03.249Z,8.59
2022-12-25T20:15:41.226Z,8.60
2022-12-25T20:18:21.173Z,8.65
2022-12-25T20:21:02.085Z,8.65
2022-12-25T20:23:42.654Z,8.68
2022-12-25T20:26:24.726Z,8.70
2022-12-25T20:29:07.400Z,8.70
2022-12-25T20:31:51.240Z,8.71
2022-12-25T20:34:36.987Z,8.76
2022-12-25T20:37:18.156Z,8.74
2022-12-25T20:39:59.440Z,8.79
2022-12-25T20:42:53.937Z,8.77
2022-12-25T20:45:33.207Z,8.83
2022-12-25T20:48:13.750Z,8.87
2022-12-25T20:50:54.826Z,8.90
2022-12-25T20:53:34.224Z,8.92
2022-12-25T20:56:18.523Z,8.97
2022-12-25T20:58:59.894Z,8.99
2022-12-25T21:01:41.893Z,9.03
2022-12-25T21:04:25.253Z,9.09
2022-12-25T21:07:06.857Z,9.13
2022-12-25T21:09:50.061Z,9.15
2022-12-25T21:12:31.041Z,9.22
2022-12-25T21:15:15.671Z,9.28
2022-12-25T21:17:56.704Z,9.34
2022-12-25T21:20:42.256Z,9.36
2022-12-25T21:23:27.998Z,9.39
2022-12-25T21:26:13.210Z,9.41
2022-12-25T21:28:55.372Z,9.43
2022-12-25T21:31:53.372Z,9.42
2022-12-25T21:34:34.341Z,9.46
2022-12-25T21:37:15.612Z,9.46
2022-12-25T21:39:56.747Z,9.44
2022-12-25T21:42:39.602Z,9.42
2022-12-25T21:45:19.882Z,9.43
2022-12-25T21:48:01.563Z,9.42
2022-12-25T21:51:01.828Z,9.41
2022-12-25T21:53:43.072Z,9.41
2022-12-25T21:56:25.381Z,9.41
2022-12-25T21:59:09.653Z,9.41
2022-12-25T22:01:54.079Z,9.44
2022-12-25T22:04:37.346Z,9.45
2022-12-25T22:07:18.020Z,9.43
2022-12-25T22:10:00.946Z,9.44
2022-12-25T22:12:58.590Z,9.44
2022-12-25T22:16:02.003Z,9.41
2022-12-25T22:18:59.860Z,9.44
2022-12-25T22:21:42.549Z,9.44
2022-12-25T22:24:22.750Z,9.44
2022-12-25T22:27:03.936Z,9.47
2022-12-25T22:29:46.669Z,9.46
2022-12-25T22:32:24.809Z,9.49
2022-12-25T22:35:05.361Z,9.51
2022-12-25T22:37:46.510Z,9.54
2022-12-25T22:40:29.052Z,9.54
2022-12-25T22:43:07.450Z,9.54
2022-12-25T22:45:49.290Z,9.57
2022-12-25T22:48:30.388Z,9.56
2022-12-25T22:51:08.564Z,9.56
2022-12-25T22:53:46.434Z,9.60
2022-12-25T22:56:26.989Z,9.60
2022-12-25T22:59:07.975Z,9.56
2022-12-25T23:01:48.123Z,9.58
2022-12-25T23:04:31.407Z,9.53
2022-12-25T23:07:15.580Z,9.53
2022-12-25T23:09:59.536Z,9.55
2022-12-25T23:12:57.630Z,9.50
2022-12-25T23:15:39.914Z,9.45
2022-12-25T23:18:37.856Z,9.41
2022-12-25T23:21:36.603Z,9.34
2022-12-25T23:24:34.240Z,9.36
2022-12-25T23:27:14.025Z,9.29
2022-12-25T23:29:53.881Z,9.29
2022-12-25T23:32:42.036Z,9.26
2022-12-25T23:35:23.636Z,9.25
2022-12-25T23:38:06.127Z,9.24
2022-12-25T23:40:45.878Z,9.16
2022-12-25T23:43:37.286Z,9.12
2022-12-25T23:46:19.702Z,9.13
2022-12-25T23:49:00.766Z,9.11
2022-12-25T23:51:45.049Z,9.11
2022-12-25T23:54:24.639Z,9.09
2022-12-25T23:57:06.429Z,9.08
2022-12-25T23:59:47.529Z,9.05
